createdAt,value
2018-11-14T00:01:03.054Z,23.53
2018-11-14T00:03:31.761Z,22.60
2018-11-14T00:06:00.380Z,22.40
2018-11-14T00:08:29.168Z,21.37
2018-11-14T00:10:57.765Z,22.80
2018-11-14T00:13:26.863Z,20.33
2018-11-14T00:15:55.508Z,21.17
2018-11-14T00:18:24.117Z,20.63
2018-11-14T00:20:53.110Z,21.63
2018-11-14T00:23:21.911Z,21.83
2018-11-14T00:25:51.713Z,23.23
2018-11-14T00:28:20.575Z,22.80
2018-11-14T00:30:49.356Z,23.77
2018-11-14T00:33:18.097Z,23.60
2018-11-14T00:35:47.370Z,22.43
2018-11-14T00:38:15.618Z,23.97
2018-11-14T00:40:44.300Z,24.77
2018-11-14T00:43:13.209Z,26.40
2018-11-14T00:45:41.725Z,26.30
2018-11-14T00:48:14.301Z,25.27
2018-11-14T00:50:47.895Z,22.90
2018-11-14T00:53:20.853Z,22.23
2018-11-14T00:55:54.486Z,23.43
2018-11-14T00:58:25.137Z,22.57
2018-11-14T01:00:56.158Z,24.07
2018-11-14T01:03:25.169Z,22.00
2018-11-14T01:05:53.864Z,22.17
2018-11-14T01:08:22.469Z,19.53
2018-11-14T01:10:51.254Z,20.07
2018-11-14T01:13:19.953Z,19.97
2018-11-14T01:15:48.746Z,18.40
2018-11-14T01:18:17.858Z,17.37
2018-11-14T01:20:49.507Z,16.87
2018-11-14T01:23:18.414Z,15.00
2018-11-14T01:25:47.003Z,16.77
2018-11-14T01:28:16.059Z,15.30
2018-11-14T01:30:44.659Z,15.50
2018-11-14T01:33:17.436Z,13.60
2018-11-14T01:35:49.983Z,11.97
2018-11-14T01:38:22.848Z,11.93
2018-11-14T01:40:53.645Z,10.87
2018-11-14T01:43:29.849Z,12.10
2018-11-14T01:46:00.902Z,12.30
2018-11-14T01:48:31.340Z,11.97
2018-11-14T01:51:05.266Z,13.83
2018-11-14T01:53:36.380Z,12.60
2018-11-14T01:56:06.884Z,15.00
2018-11-14T01:58:38.042Z,14.47
2018-11-14T02:01:14.398Z,15.07
2018-11-14T02:03:50.374Z,15.77
2018-11-14T02:06:28.248Z,15.27
2018-11-14T02:09:02.417Z,14.67
2018-11-14T02:11:33.164Z,17.03
2018-11-14T02:14:04.949Z,17.07
2018-11-14T02:16:37.864Z,16.60
2018-11-14T02:19:06.774Z,15.27
2018-11-14T02:21:35.604Z,15.77
2018-11-14T02:24:04.154Z,16.17
2018-11-14T02:26:32.818Z,16.70
2018-11-14T02:29:01.691Z,15.60
2018-11-14T02:31:30.387Z,17.50
2018-11-14T02:33:59.009Z,16.67
2018-11-14T02:36:28.978Z,16.67
2018-11-14T02:38:58.495Z,16.50
2018-11-14T02:41:27.291Z,16.63
2018-11-14T02:43:56.097Z,16.47
2018-11-14T02:46:24.834Z,17.00
2018-11-14T02:48:55.805Z,17.30
2018-11-14T02:51:31.527Z,18.70
2018-11-14T02:54:01.470Z,17.33
2018-11-14T02:56:35.914Z,17.60
2018-11-14T02:59:12.874Z,17.53
2018-11-14T03:01:43.018Z,17.23
2018-11-14T03:04:22.535Z,16.90
2018-11-14T03:06:53.514Z,17.77
2018-11-14T03:09:23.544Z,18.30
2018-11-14T03:11:55.617Z,17.13
2018-11-14T03:14:29.813Z,16.33
2018-11-14T03:22:18.646Z,16.17
2018-11-14T03:27:26.998Z,16.60
2018-11-14T03:30:05.863Z,15.47
2018-11-14T03:32:36.184Z,16.53
2018-11-14T03:35:07.926Z,16.77
2018-11-14T03:37:41.302Z,16.33
2018-11-14T03:40:17.349Z,17.40
2018-11-14T03:42:51.006Z,17.47
2018-11-14T03:45:21.922Z,16.90
2018-11-14T03:47:53.795Z,17.13
2018-11-14T03:50:22.883Z,16.03
2018-11-14T03:52:51.567Z,17.07
2018-11-14T03:55:23.487Z,17.23
2018-11-14T03:57:52.765Z,16.00
2018-11-14T04:00:21.457Z,17.87
2018-11-14T04:02:50.394Z,16.50
2018-11-14T04:05:19.048Z,16.67
2018-11-14T04:07:47.770Z,16.37
2018-11-14T04:10:16.618Z,19.37
2018-11-14T04:12:45.234Z,16.60
2018-11-14T04:15:14.809Z,16.17
2018-11-14T04:17:43.734Z,16.47
2018-11-14T04:20:14.038Z,16.43
2018-11-14T04:22:42.833Z,17.63
2018-11-14T04:25:13.958Z,16.60
2018-11-14T04:27:44.258Z,18.23
2018-11-14T04:30:14.699Z,17.83
2018-11-14T04:32:43.934Z,16.63
2018-11-14T04:35:13.390Z,18.10
2018-11-14T04:37:42.236Z,17.87
2018-11-14T04:40:12.953Z,16.90
2018-11-14T04:42:41.695Z,18.37
2018-11-14T04:45:13.451Z,20.13
2018-11-14T04:47:42.674Z,20.83
2018-11-14T04:50:15.011Z,20.40
2018-11-14T04:52:44.261Z,19.67
2018-11-14T04:55:15.194Z,19.47
2018-11-14T04:57:44.389Z,18.80
2018-11-14T05:00:14.166Z,18.10
2018-11-14T05:02:43.639Z,19.43
2018-11-14T05:05:18.237Z,20.17
2018-11-14T05:07:52.798Z,20.20
2018-11-14T05:10:30.021Z,20.40
2018-11-14T05:13:11.322Z,21.57
2018-11-14T05:15:43.921Z,21.03
2018-11-14T05:18:15.458Z,19.60
2018-11-14T05:20:43.967Z,19.97
2018-11-14T05:23:12.666Z,19.30
2018-11-14T05:25:42.252Z,18.03
2018-11-14T05:28:10.915Z,17.70
2018-11-14T05:30:39.414Z,19.23
2018-11-14T05:33:08.072Z,19.27
2018-11-14T05:35:38.513Z,18.27
2018-11-14T05:38:11.998Z,17.80
2018-11-14T05:40:45.355Z,18.00
2018-11-14T05:43:17.862Z,18.27
2018-11-14T05:45:56.031Z,17.30
2018-11-14T05:48:32.045Z,18.53
2018-11-14T05:51:00.619Z,18.90
2018-11-14T05:53:29.320Z,17.33
2018-11-14T05:55:58.211Z,18.40
2018-11-14T05:58:33.356Z,18.30
2018-11-14T06:01:01.932Z,19.90
2018-11-14T06:03:31.590Z,18.43
2018-11-14T06:06:01.022Z,19.57
2018-11-14T06:08:29.778Z,18.70
2018-11-14T06:11:05.312Z,17.60
2018-11-14T06:13:34.072Z,19.33
2018-11-14T06:16:08.281Z,19.63
2018-11-14T06:18:36.852Z,19.23
2018-11-14T06:21:06.059Z,17.80
2018-11-14T06:23:34.934Z,18.77
2018-11-14T06:26:03.655Z,17.93
2018-11-14T06:28:32.476Z,17.63
2018-11-14T06:31:01.525Z,20.33
2018-11-14T06:33:30.168Z,18.80
2018-11-14T06:35:59.034Z,19.87
2018-11-14T06:38:27.865Z,21.40
2018-11-14T06:40:56.761Z,21.63
2018-11-14T06:43:25.389Z,21.17
2018-11-14T06:45:54.436Z,20.87
2018-11-14T06:48:23.942Z,20.33
2018-11-14T06:50:53.199Z,23.63
2018-11-14T06:53:23.523Z,24.53
2018-11-14T06:55:53.462Z,25.47
2018-11-14T06:58:23.928Z,22.90
2018-11-14T07:00:52.671Z,23.27
2018-11-14T07:03:23.489Z,20.67
2018-11-14T07:05:52.307Z,21.07
2018-11-14T07:08:21.069Z,19.57
2018-11-14T07:10:51.051Z,21.40
2018-11-14T07:13:19.989Z,21.30
2018-11-14T07:15:48.718Z,19.93
2018-11-14T07:18:24.058Z,19.93
2018-11-14T07:20:52.953Z,21.00
2018-11-14T07:23:21.705Z,19.43
2018-11-14T07:25:50.285Z,19.50
2018-11-14T07:28:19.133Z,21.27
2018-11-14T07:30:48.211Z,20.67
2018-11-14T07:33:16.985Z,20.70
2018-11-14T07:35:45.799Z,18.70
2018-11-14T07:38:34.327Z,19.07
2018-11-14T07:41:03.912Z,19.30
2018-11-14T07:43:33.610Z,18.83
2018-11-14T07:46:03.229Z,19.87
2018-11-14T07:48:33.186Z,20.60
2018-11-14T07:51:02.604Z,19.53
2018-11-14T07:53:32.773Z,20.00
2018-11-14T07:56:01.453Z,19.30
2018-11-14T07:58:30.508Z,19.60
2018-11-14T08:00:59.269Z,19.73
2018-11-14T08:03:28.287Z,20.37
2018-11-14T08:05:57.260Z,20.77
2018-11-14T08:08:35.699Z,20.00
2018-11-14T08:11:04.327Z,21.30
2018-11-14T08:16:44.792Z,19.83
2018-11-14T08:19:14.524Z,20.87
2018-11-14T08:21:43.256Z,19.37
2018-11-14T08:24:12.057Z,19.20
2018-11-14T08:26:40.944Z,19.47
2018-11-14T08:29:09.744Z,18.67
2018-11-14T08:31:38.525Z,18.53
2018-11-14T08:34:07.337Z,19.10
2018-11-14T08:36:36.070Z,20.93
2018-11-14T08:39:06.574Z,18.77
2018-11-14T08:41:35.402Z,19.43
2018-11-14T08:44:07.328Z,20.53
2018-11-14T08:46:43.433Z,20.73
2018-11-14T08:49:12.354Z,19.90
2018-11-14T08:51:41.106Z,21.70
2018-11-14T08:54:10.160Z,21.50
2018-11-14T08:56:39.036Z,26.20
2018-11-14T08:59:08.954Z,20.53
2018-11-14T09:01:37.589Z,20.30
2018-11-14T09:04:06.785Z,20.23
2018-11-14T09:06:35.583Z,20.77
2018-11-14T09:09:06.019Z,20.37
2018-11-14T09:11:34.744Z,19.27
2018-11-14T09:14:03.499Z,18.40
2018-11-14T09:16:32.204Z,19.23
2018-11-14T09:19:00.884Z,14.27
2018-11-14T09:21:29.633Z,14.27
2018-11-14T09:23:58.174Z,14.67
2018-11-14T09:26:26.859Z,14.57
2018-11-14T09:28:55.506Z,14.70
2018-11-14T09:31:25.764Z,13.70
2018-11-14T09:33:56.335Z,18.27
2018-11-14T09:36:25.120Z,18.70
2018-11-14T09:38:56.277Z,17.80
2018-11-14T09:41:25.156Z,14.97
2018-11-14T09:44:01.934Z,18.43
2018-11-14T09:46:30.894Z,19.73
2018-11-14T09:49:00.715Z,20.60
2018-11-14T09:51:32.047Z,20.43
2018-11-14T09:54:00.919Z,17.03
2018-11-14T09:56:29.636Z,16.17
2018-11-14T09:58:58.481Z,15.57
2018-11-14T10:01:27.217Z,16.17
2018-11-14T10:03:56.060Z,17.17
2018-11-14T10:06:24.960Z,16.57
2018-11-14T10:08:53.629Z,16.43
2018-11-14T10:11:22.869Z,14.93
2018-11-14T10:13:57.903Z,12.87
2018-11-14T10:16:26.550Z,11.70
2018-11-14T10:18:54.988Z,11.27
2018-11-14T10:21:24.362Z,12.67
2018-11-14T10:23:53.341Z,11.73
2018-11-14T10:26:22.654Z,12.30
2018-11-14T10:28:51.390Z,10.90
2018-11-14T10:31:20.108Z,12.53
2018-11-14T10:33:49.286Z,12.47
2018-11-14T10:36:18.502Z,10.77
2018-11-14T10:38:49.714Z,9.87
2018-11-14T10:41:23.502Z,10.63
2018-11-14T10:43:52.713Z,15.30
2018-11-14T10:46:22.480Z,12.13
2018-11-14T10:48:51.357Z,11.30
2018-11-14T10:51:20.108Z,9.20
2018-11-14T10:53:49.088Z,9.50
2018-11-14T10:56:18.929Z,9.33
2018-11-14T10:58:47.771Z,11.67
2018-11-14T11:01:21.974Z,11.90
2018-11-14T11:03:56.055Z,11.57
2018-11-14T11:06:43.968Z,10.87
2018-11-14T11:09:19.084Z,8.53
2018-11-14T11:11:53.282Z,8.90
2018-11-14T11:14:28.548Z,9.63
2018-11-14T11:17:02.303Z,13.60
2018-11-14T11:19:31.869Z,18.70
2018-11-14T11:22:00.953Z,15.07
2018-11-14T11:24:29.993Z,16.23
2018-11-14T11:26:58.671Z,16.70
2018-11-14T11:29:27.460Z,15.73
2018-11-14T11:31:57.501Z,15.23
2018-11-14T11:34:27.670Z,17.47
2018-11-14T11:36:56.322Z,19.93
2018-11-14T11:39:26.575Z,18.10
2018-11-14T11:41:56.041Z,17.33
2018-11-14T11:44:30.272Z,19.40
2018-11-14T11:47:01.510Z,11.30
2018-11-14T11:49:30.014Z,13.53
2018-11-14T11:52:05.118Z,14.93
2018-11-14T11:54:33.994Z,14.93
2018-11-14T11:57:02.459Z,16.10
2018-11-14T11:59:32.262Z,15.20
2018-11-14T12:02:01.906Z,12.57
2018-11-14T12:04:31.042Z,8.77
2018-11-14T12:07:00.311Z,7.73
2018-11-14T12:09:29.073Z,9.00
2018-11-14T12:11:57.782Z,9.37
2018-11-14T12:14:26.657Z,7.73
2018-11-14T12:16:55.744Z,9.27
2018-11-14T12:19:25.206Z,9.73
2018-11-14T12:21:59.466Z,9.87
2018-11-14T12:24:28.729Z,9.37
2018-11-14T12:26:57.685Z,12.83
2018-11-14T12:29:27.498Z,9.03
2018-11-14T12:31:56.287Z,7.93
2018-11-14T12:34:25.700Z,7.97
2018-11-14T12:36:54.596Z,7.03
2018-11-14T12:39:23.353Z,6.80
2018-11-14T12:41:52.145Z,7.27
2018-11-14T12:44:24.127Z,8.37
2018-11-14T12:46:57.976Z,9.43
2018-11-14T12:49:26.803Z,11.53
2018-11-14T12:51:55.653Z,14.00
2018-11-14T12:54:24.424Z,14.70
2018-11-14T12:56:53.094Z,14.30
2018-11-14T12:59:21.991Z,12.00
2018-11-14T13:01:51.737Z,12.70
2018-11-14T13:04:26.972Z,12.10
2018-11-14T13:06:55.874Z,13.87
2018-11-14T13:09:24.698Z,11.20
2018-11-14T13:11:55.991Z,12.50
2018-11-14T13:14:24.841Z,13.30
2018-11-14T13:16:53.781Z,12.37
2018-11-14T13:19:22.785Z,12.30
2018-11-14T13:21:51.368Z,15.70
2018-11-14T13:24:27.787Z,14.17
2018-11-14T13:26:57.083Z,12.63
2018-11-14T13:29:28.760Z,12.73
2018-11-14T13:31:57.673Z,12.27
2018-11-14T13:34:26.827Z,12.87
2018-11-14T13:36:55.761Z,13.13
2018-11-14T13:39:24.675Z,13.07
2018-11-14T13:41:54.037Z,12.33
2018-11-14T13:44:25.278Z,14.57
2018-11-14T13:46:55.738Z,14.93
2018-11-14T13:49:27.591Z,12.80
2018-11-14T13:51:56.724Z,11.93
2018-11-14T13:54:25.597Z,11.40
2018-11-14T13:57:01.001Z,10.97
2018-11-14T13:59:29.972Z,14.07
2018-11-14T14:01:58.819Z,17.33
2018-11-14T14:04:29.431Z,19.30
2018-11-14T14:07:02.176Z,13.60
2018-11-14T14:09:30.763Z,16.70
2018-11-14T14:11:59.567Z,13.13
2018-11-14T14:14:28.331Z,11.60
2018-11-14T14:16:56.967Z,13.07
2018-11-14T14:19:25.701Z,15.20
2018-11-14T14:21:55.267Z,12.23
2018-11-14T14:24:24.785Z,11.53
2018-11-14T14:26:54.392Z,13.23
2018-11-14T14:29:23.158Z,14.83
2018-11-14T14:31:52.156Z,14.67
2018-11-14T14:34:24.591Z,18.83
2018-11-14T14:36:54.582Z,15.63
2018-11-14T14:39:25.103Z,17.43
2018-11-14T14:41:54.041Z,20.67
2018-11-14T14:44:29.515Z,21.03
2018-11-14T14:47:06.910Z,23.97
2018-11-14T14:49:44.395Z,20.33
2018-11-14T14:52:13.017Z,21.23
2018-11-14T14:54:41.544Z,19.73
2018-11-14T14:57:10.184Z,20.53
2018-11-14T14:59:45.333Z,21.73
2018-11-14T15:02:14.597Z,21.80
2018-11-14T15:04:43.878Z,19.20
2018-11-14T15:07:12.418Z,20.37
2018-11-14T15:09:41.259Z,17.83
2018-11-14T15:12:11.000Z,19.87
2018-11-14T15:14:39.986Z,16.70
2018-11-14T15:17:08.452Z,20.20
2018-11-14T15:19:37.212Z,17.73
2018-11-14T15:22:06.118Z,19.20
2018-11-14T15:24:35.457Z,21.20
2018-11-14T15:27:04.236Z,20.80
2018-11-14T15:29:32.822Z,22.83
2018-11-14T15:32:02.045Z,22.03
2018-11-14T15:34:30.819Z,23.77
2018-11-14T15:36:59.824Z,26.33
2018-11-14T15:39:29.154Z,25.70
2018-11-14T15:41:57.971Z,24.67
2018-11-14T15:44:26.653Z,26.13
2018-11-14T15:46:55.679Z,26.53
2018-11-14T15:49:24.405Z,30.07
2018-11-14T16:20:12.346Z,49.80
2018-11-14T16:22:42.036Z,50.17
2018-11-14T16:25:13.541Z,45.30
2018-11-14T16:27:43.313Z,48.90
2018-11-14T16:30:16.669Z,49.00
2018-11-14T16:32:46.614Z,54.60
2018-11-14T16:35:16.836Z,57.90
2018-11-14T16:37:46.067Z,61.40
2018-11-14T16:40:30.796Z,52.00
2018-11-14T16:43:13.164Z,58.00
2018-11-14T16:45:51.784Z,53.47
2018-11-14T16:49:08.857Z,71.23
2018-11-14T16:52:23.217Z,70.33
2018-11-14T16:54:58.771Z,64.77
2018-11-14T16:57:35.429Z,60.57
2018-11-14T17:00:19.694Z,55.30
2018-11-14T17:05:33.904Z,46.30
2018-11-14T17:08:06.123Z,47.83
2018-11-14T17:10:42.744Z,51.37
2018-11-14T17:13:12.638Z,51.77
2018-11-14T17:15:45.380Z,49.03
2018-11-14T17:18:15.459Z,54.10
2018-11-14T17:20:46.157Z,51.23
2018-11-14T17:23:18.108Z,46.60
2018-11-14T17:25:49.965Z,44.00
2018-11-14T17:31:47.916Z,42.17
2018-11-14T17:37:21.071Z,36.37
2018-11-14T17:40:05.480Z,38.20
2018-11-14T17:42:34.896Z,41.97
2018-11-14T17:45:05.057Z,38.90
2018-11-14T17:47:34.061Z,38.90
2018-11-14T17:50:03.727Z,34.80
2018-11-14T17:52:32.446Z,33.00
2018-11-14T17:55:01.303Z,39.23
2018-11-14T17:57:30.294Z,36.17
2018-11-14T17:59:59.311Z,31.37
2018-11-14T18:02:28.218Z,29.07
2018-11-14T18:04:57.494Z,44.47
2018-11-14T18:07:26.421Z,39.53
2018-11-14T18:09:55.256Z,39.50
2018-11-14T18:12:24.165Z,37.13
2018-11-14T18:14:53.756Z,34.73
2018-11-14T18:17:23.686Z,33.50
2018-11-14T18:20:00.282Z,43.63
2018-11-14T18:22:32.178Z,37.07
2018-11-14T18:25:00.841Z,32.33
2018-11-14T18:27:29.770Z,31.33
2018-11-14T18:29:58.597Z,28.63
2018-11-14T18:32:28.727Z,32.37
2018-11-14T18:34:58.282Z,42.30
2018-11-14T18:37:27.847Z,36.23
2018-11-14T18:39:56.598Z,27.77
2018-11-14T18:42:26.209Z,32.67
2018-11-14T18:44:56.001Z,34.70
2018-11-14T18:47:28.061Z,36.03
2018-11-14T18:49:57.032Z,42.80
2018-11-14T18:52:25.758Z,35.40
2018-11-14T18:54:54.424Z,41.57
2018-11-14T18:57:23.903Z,36.77
2018-11-14T18:59:52.968Z,36.40
2018-11-14T19:02:32.264Z,38.30
2018-11-14T19:05:05.047Z,33.67
2018-11-14T19:07:34.044Z,33.77
2018-11-14T19:10:26.830Z,38.27
2018-11-14T19:13:01.134Z,38.47
2018-11-14T19:15:31.246Z,38.13
2018-11-14T19:18:07.512Z,38.17
2018-11-14T19:20:36.782Z,36.20
2018-11-14T19:23:07.007Z,36.50
2018-11-14T19:25:45.237Z,34.40
2018-11-14T19:30:50.581Z,32.57
2018-11-14T19:33:20.068Z,30.53
2018-11-14T19:35:52.797Z,36.63
2018-11-14T19:38:21.570Z,31.63
2018-11-14T19:40:50.243Z,31.77
2018-11-14T19:43:18.898Z,33.90
2018-11-14T19:45:47.928Z,28.50
2018-11-14T19:48:17.314Z,29.60
2018-11-14T19:50:46.073Z,29.33
2018-11-14T20:00:12.160Z,30.80
2018-11-14T20:02:40.873Z,31.27
2018-11-14T20:05:10.806Z,31.67
2018-11-14T20:07:45.973Z,34.80
2018-11-14T20:10:17.057Z,38.20
2018-11-14T20:12:46.371Z,29.47
2018-11-14T20:15:17.605Z,42.40
2018-11-14T20:17:47.256Z,42.37
2018-11-14T20:20:21.275Z,41.27
2018-11-14T20:22:51.389Z,38.47
2018-11-14T20:25:19.975Z,35.63
2018-11-14T20:27:48.740Z,32.33
2018-11-14T20:30:19.989Z,33.20
2018-11-14T20:32:49.022Z,33.77
2018-11-14T20:35:18.787Z,34.03
2018-11-14T20:37:47.937Z,30.27
2018-11-14T20:40:19.981Z,26.83
2018-11-14T20:42:50.143Z,24.60
2018-11-14T20:45:23.893Z,24.20
2018-11-14T20:47:52.849Z,26.23
2018-11-14T20:50:22.800Z,25.33
2018-11-14T20:52:53.513Z,30.13
2018-11-14T20:55:22.577Z,27.90
2018-11-14T20:57:51.346Z,31.77
2018-11-14T21:00:22.269Z,39.27
2018-11-14T21:02:51.843Z,35.17
2018-11-14T21:05:20.717Z,36.47
2018-11-14T21:07:50.855Z,36.50
2018-11-14T21:10:21.812Z,35.07
2018-11-14T21:12:53.141Z,33.83
2018-11-14T21:15:25.249Z,32.53
2018-11-14T21:17:55.921Z,34.63
2018-11-14T21:20:25.491Z,34.37
2018-11-14T21:22:54.286Z,32.20
2018-11-14T21:25:23.883Z,34.90
2018-11-14T21:27:53.122Z,31.80
2018-11-14T21:30:23.186Z,35.00
2018-11-14T21:32:52.172Z,33.63
2018-11-14T21:35:24.443Z,30.00
2018-11-14T21:38:01.872Z,30.30
2018-11-14T21:40:31.338Z,25.30
2018-11-14T21:43:00.283Z,25.30
2018-11-14T21:45:29.914Z,25.10
2018-11-14T21:48:04.247Z,28.50
2018-11-14T21:50:35.845Z,28.10
2018-11-14T21:53:05.544Z,24.73
2018-11-14T21:55:35.183Z,27.27
2018-11-14T21:58:03.833Z,25.13
2018-11-14T22:00:33.839Z,32.60
2018-11-14T22:03:03.230Z,32.67
2018-11-14T22:05:33.075Z,34.60
2018-11-14T22:08:01.745Z,37.00
2018-11-14T22:10:30.532Z,33.40
2018-11-14T22:12:59.093Z,34.77
2018-11-14T22:15:29.626Z,35.73
2018-11-14T22:17:59.350Z,32.67
2018-11-14T22:20:28.610Z,35.00
2018-11-14T22:22:57.846Z,30.83
2018-11-14T22:25:27.991Z,32.43
2018-11-14T22:27:57.176Z,33.97
2018-11-14T22:33:26.421Z,32.97
2018-11-14T22:36:05.890Z,32.77
2018-11-14T22:54:49.877Z,27.73
2018-11-14T22:57:29.886Z,28.90
2018-11-14T23:04:14.484Z,29.50
2018-11-14T23:08:44.002Z,26.33
2018-11-14T23:11:14.813Z,33.27
2018-11-14T23:13:44.079Z,31.20
2018-11-14T23:16:15.261Z,30.63
2018-11-14T23:18:44.459Z,26.03
2018-11-14T23:21:20.116Z,25.30
2018-11-14T23:23:49.405Z,23.30
2018-11-14T23:26:18.225Z,25.07
2018-11-14T23:28:46.867Z,25.07
2018-11-14T23:31:17.312Z,22.93
2018-11-14T23:33:45.994Z,24.83
2018-11-14T23:36:14.889Z,22.50
2018-11-14T23:38:43.821Z,24.50
2018-11-14T23:41:12.918Z,23.27
2018-11-14T23:43:41.977Z,20.57
2018-11-14T23:46:14.101Z,20.93
2018-11-14T23:48:42.803Z,22.70
2018-11-14T23:51:11.420Z,20.73
2018-11-14T23:53:39.997Z,21.40
2018-11-14T23:56:08.693Z,21.97
2018-11-14T23:58:37.214Z,22.13
